This is the latest recevied weather packets stored in our database for station/object SQ5DN-4. If no packets are shown the sender has not sent any weather packets the latest 10 day(s).
| Time | Temp. | Humidity | Pressure | Rain* | Wind** | Luminosity | Snow |
|---|---|---|---|---|---|---|---|
| 1777512682 | -3.33° C | 86% | 1026 hPa | - | - | - | - |
| 1777512177 | -3.33° C | 85% | 1026 hPa | - | - | - | - |
| 1777511632 | -3.33° C | 83% | 1026 hPa | - | - | - | - |
| 1777511096 | -3.33° C | 83% | 1026 hPa | - | - | - | - |
| 1777510616 | -2.22° C | 82% | 1026 hPa | - | - | - | - |
| 1777510072 | -2.22° C | 80% | 1026 hPa | - | - | - | - |
| 1777509527 | -2.22° C | 81% | 1026 hPa | - | - | - | - |
| 1777508976 | -2.22° C | 83% | 1026 hPa | - | - | - | - |
| 1777508467 | -2.22° C | 82% | 1026 hPa | - | - | - | - |
| 1777507952 | -2.22° C | 82% | 1026 hPa | - | - | - | - |
| 1777507396 | -1.67° C | 81% | 1026 hPa | - | - | - | - |
| 1777506842 | -1.67° C | 80% | 1026 hPa | - | - | - | - |
| 1777506312 | -1.67° C | 80% | 1026 hPa | - | - | - | - |
| 1777505732 | -1.67° C | 78% | 1026 hPa | - | - | - | - |
| 1777505176 | -1.11° C | 76% | 1026 hPa | - | - | - | - |
| 1777504676 | -0.56° C | 74% | 1026 hPa | - | - | - | - |
| 1777502496 | 0° C | 73% | 1026 hPa | - | - | - | - |
| 1777501932 | -0.56° C | 74% | 1026 hPa | - | - | - | - |
| 1777501392 | 0° C | 72% | 1026 hPa | - | - | - | - |
| 1777500862 | 0.56° C | 70% | 1026 hPa | - | - | - | - |
| 1777500347 | 0.56° C | 70% | 1026 hPa | - | - | - | - |
| 1777499847 | 0.56° C | 70% | 1026 hPa | - | - | - | - |
| 1777499272 | 1.11° C | 69% | 1026 hPa | - | - | - | - |
| 1777498787 | 1.11° C | 68% | 1025 hPa | - | - | - | - |
| 1777498196 | 0.56° C | 72% | 1025 hPa | - | - | - | - |
* Rain since midnight (hover to see other rain measurements)
** Current wind speed in m/s (hover to see current wind gust speed)